Time;durP1;ratioP1;P1;durP2;ratioP2;P2;SDS_P1;SDS_P2;PMS_P1;PMS_P2;Temp;Humidity;BMP_temperature;BMP_pressure;BME280_temperature;BME280_humidity;BME280_pressure;Samples;Min_cycle;Max_cycle;Signal;HPM_P1;HPM_P2
2022/10/27 00:00:36;;;;;;;7.97;6.23;;;10.30;1.00;;;;;;4990985;28;20172;-79
2022/10/27 00:03:02;;;;;;;9.33;5.97;;;10.70;1.00;;;;;;4990622;28;20242;-79
2022/10/27 00:05:28;;;;;;;9.83;6.37;;;9.90;99.90;;;;;;5006697;28;21851;-80
2022/10/27 00:07:54;;;;;;;10.17;5.60;;;9.90;99.90;;;;;;5001445;28;20191;-81
2022/10/27 00:10:20;;;;;;;7.20;5.97;;;9.80;99.90;;;;;;5007128;28;20647;-81
2022/10/27 00:12:46;;;;;;;8.20;6.00;;;9.80;99.90;;;;;;4990818;28;20187;-79
2022/10/27 00:15:12;;;;;;;8.07;5.47;;;9.70;99.90;;;;;;5008441;28;20203;-83
2022/10/27 00:17:38;;;;;;;9.70;6.10;;;9.70;99.90;;;;;;5008076;28;20179;-79
2022/10/27 00:20:05;;;;;;;9.00;5.27;;;10.60;99.90;;;;;;4990239;28;20184;-80
2022/10/27 00:22:31;;;;;;;6.50;5.80;;;9.70;99.90;;;;;;5007396;28;20234;-80
2022/10/27 00:24:57;;;;;;;8.90;6.07;;;9.80;99.90;;;;;;4990446;28;20214;-79
2022/10/27 00:27:22;;;;;;;9.50;5.80;;;9.90;99.90;;;;;;5007474;28;20252;-83
2022/10/27 00:29:48;;;;;;;8.00;6.03;;;9.70;99.90;;;;;;5007945;28;20558;-79
2022/10/27 00:32:13;;;;;;;7.17;5.53;;;10.20;99.90;;;;;;4985642;28;20505;-79
2022/10/27 00:34:39;;;;;;;9.97;6.27;;;10.00;1.00;;;;;;5007271;28;20203;-80
2022/10/27 00:37:05;;;;;;;9.10;5.53;;;9.80;1.00;;;;;;5008736;28;20206;-79
2022/10/27 00:39:30;;;;;;;9.53;5.70;;;9.80;1.00;;;;;;5007922;28;20237;-79
2022/10/27 00:41:57;;;;;;;7.27;5.53;;;9.70;1.00;;;;;;4990410;28;20201;-79
2022/10/27 00:44:28;;;;;;;10.00;5.10;;;9.70;1.00;;;;;;4989717;28;20338;-79
2022/10/27 00:46:54;;;;;;;7.37;5.50;;;9.70;1.00;;;;;;5007869;28;20271;-81
2022/10/27 00:49:26;;;;;;;6.97;5.07;;;9.60;1.00;;;;;;4990022;28;20346;-79
2022/10/27 00:51:57;;;;;;;7.13;5.00;;;9.60;1.00;;;;;;5007735;28;20238;-81
2022/10/27 00:54:26;;;;;;;5.53;5.03;;;9.60;1.00;;;;;;4997660;28;20338;-79
2022/10/27 00:56:53;;;;;;;8.50;5.50;;;9.80;1.00;;;;;;5007824;28;20191;-79
2022/10/27 00:59:20;;;;;;;8.57;4.97;;;10.30;1.00;;;;;;5006403;28;20207;-79
2022/10/27 01:01:49;;;;;;;7.53;5.20;;;9.70;1.00;;;;;;5006935;28;20337;-80
2022/10/27 01:04:20;;;;;;;9.03;5.00;;;9.60;1.00;;;;;;5006771;28;20599;-79
2022/10/27 01:06:46;;;;;;;8.27;5.50;;;9.70;1.00;;;;;;5005889;28;20171;-80
2022/10/27 01:09:13;;;;;;;6.70;4.87;;;9.70;1.00;;;;;;4987947;28;20214;-79
2022/10/27 01:11:38;;;;;;;7.70;5.33;;;9.60;1.00;;;;;;4997723;28;20717;-81
2022/10/27 01:14:04;;;;;;;7.27;5.30;;;9.80;1.00;;;;;;4989973;28;20195;-81
2022/10/27 01:16:45;;;;;;;11.03;5.77;;;9.90;1.00;;;;;;5006850;28;20207;-79
2022/10/27 01:19:49;;;;;;;6.30;5.60;;;9.80;1.00;;;;;;4998290;28;20190;-79
2022/10/27 01:22:25;;;;;;;7.03;5.77;;;9.80;1.00;;;;;;4944321;28;20195;-81
2022/10/27 01:25:05;;;;;;;7.90;5.73;;;9.80;1.00;;;;;;5006723;28;20206;-79
2022/10/27 01:27:40;;;;;;;7.97;5.87;;;9.80;1.00;;;;;;4989029;28;20183;-79
2022/10/27 01:30:18;;;;;;;7.13;5.73;;;9.80;1.00;;;;;;5006627;28;20234;-80
2022/10/27 01:32:48;;;;;;;7.40;5.10;;;9.80;1.00;;;;;;5005914;28;20253;-79
2022/10/27 01:35:26;;;;;;;6.67;4.90;;;10.10;1.00;;;;;;4988431;28;20200;-81
2022/10/27 01:38:02;;;;;;;6.57;4.90;;;9.70;1.00;;;;;;5006422;28;20254;-79
2022/10/27 01:40:38;;;;;;;6.53;5.00;;;9.70;1.00;;;;;;5006009;28;20675;-80
2022/10/27 01:43:16;;;;;;;8.70;5.30;;;10.00;1.00;;;;;;4988914;28;20555;-79
2022/10/27 01:45:43;;;;;;;7.97;5.30;;;9.70;1.00;;;;;;4987158;28;20310;-80
2022/10/27 01:48:10;;;;;;;10.30;5.30;;;10.00;1.00;;;;;;4988706;28;20188;-79
2022/10/27 01:50:38;;;;;;;7.67;5.33;;;9.70;1.00;;;;;;5006434;28;20214;-80
2022/10/27 01:53:04;;;;;;;6.50;4.77;;;9.60;1.00;;;;;;5005714;28;20566;-79
2022/10/27 01:56:05;;;;;;;6.00;5.40;;;9.70;1.00;;;;;;5005712;28;20207;-83
2022/10/27 01:59:01;;;;;;;6.17;5.00;;;9.60;1.00;;;;;;5005767;28;20554;-80
2022/10/27 02:01:27;;;;;;;7.00;4.90;;;9.60;1.00;;;;;;4988231;28;20298;-80
2022/10/27 02:03:57;;;;;;;8.33;5.27;;;9.60;1.00;;;;;;5006241;28;20260;-82
2022/10/27 02:06:39;;;;;;;7.23;5.10;;;9.50;1.00;;;;;;5006248;28;20281;-79
2022/10/27 02:09:23;;;;;;;8.70;5.27;;;9.50;1.00;;;;;;4987789;28;20213;-79
2022/10/27 02:11:51;;;;;;;6.17;4.87;;;9.50;1.00;;;;;;4996533;28;20207;-79
2022/10/27 02:14:18;;;;;;;6.73;4.67;;;9.50;1.00;;;;;;5005079;28;20841;-79
2022/10/27 02:16:52;;;;;;;6.77;5.20;;;9.40;1.00;;;;;;5005816;28;20191;-82
2022/10/27 02:19:19;;;;;;;8.80;4.73;;;9.40;1.00;;;;;;5005635;28;20187;-80
2022/10/27 02:21:48;;;;;;;5.90;5.07;;;9.40;1.00;;;;;;5006571;28;20445;-79
2022/10/27 02:24:14;;;;;;;6.37;4.90;;;9.40;1.00;;;;;;4987881;28;20187;-81
2022/10/27 02:26:50;;;;;;;9.23;5.37;;;9.30;1.00;;;;;;5006304;28;20183;-80
2022/10/27 02:29:21;;;;;;;10.23;5.53;;;9.60;1.00;;;;;;5005563;28;20214;-80
2022/10/27 02:31:50;;;;;;;8.23;5.17;;;9.50;1.00;;;;;;5005975;28;20180;-80
2022/10/27 02:34:17;;;;;;;6.07;4.87;;;9.50;1.00;;;;;;5004467;28;20183;-80
2022/10/27 02:36:43;;;;;;;8.97;5.53;;;9.60;1.00;;;;;;5005031;28;20636;-79
2022/10/27 02:39:08;;;;;;;7.10;5.17;;;10.00;1.00;;;;;;5005581;28;20201;-82
2022/10/27 02:41:34;;;;;;;6.70;5.60;;;9.70;1.00;;;;;;5005399;28;20266;-82
2022/10/27 02:43:59;;;;;;;9.60;5.37;;;9.50;1.00;;;;;;4987763;28;20801;-80
2022/10/27 02:46:25;;;;;;;11.80;5.57;;;9.50;1.00;;;;;;5005122;28;20284;-81
2022/10/27 02:48:50;;;;;;;7.23;5.60;;;9.90;1.00;;;;;;5005232;28;20215;-79
2022/10/27 02:51:16;;;;;;;7.97;5.73;;;9.40;1.00;;;;;;4987070;28;20246;-79
2022/10/27 02:53:42;;;;;;;7.30;5.13;;;9.50;1.00;;;;;;4987845;28;20971;-79
2022/10/27 02:56:07;;;;;;;10.53;5.53;;;9.50;1.00;;;;;;5004587;28;20258;-82
2022/10/27 02:58:34;;;;;;;6.47;5.40;;;9.70;1.00;;;;;;5005072;28;20283;-79
2022/10/27 03:00:59;;;;;;;7.73;4.67;;;9.70;1.00;;;;;;4987220;28;20210;-79
2022/10/27 03:03:25;;;;;;;6.90;4.93;;;9.40;1.00;;;;;;5004626;28;20226;-79
2022/10/27 03:05:51;;;;;;;6.47;5.20;;;9.50;1.00;;;;;;5005268;28;20226;-80
2022/10/27 03:08:17;;;;;;;7.13;4.40;;;9.50;1.00;;;;;;5004277;28;20214;-79
2022/10/27 03:10:43;;;;;;;8.30;5.13;;;9.50;1.00;;;;;;5004276;28;20184;-81
2022/10/27 03:13:09;;;;;;;11.70;5.47;;;9.60;1.00;;;;;;4987621;28;20282;-81
2022/10/27 03:15:35;;;;;;;11.37;5.37;;;9.60;1.00;;;;;;5004818;28;20583;-79
2022/10/27 03:18:01;;;;;;;9.87;5.70;;;9.90;1.00;;;;;;5003570;28;20172;-79
2022/10/27 03:20:26;;;;;;;10.93;5.90;;;9.90;1.00;;;;;;5004258;28;20183;-80
2022/10/27 03:22:52;;;;;;;7.40;5.50;;;9.90;1.00;;;;;;4987521;28;20545;-80
2022/10/27 03:25:17;;;;;;;6.90;5.30;;;9.90;1.00;;;;;;4986935;28;20207;-80
2022/10/27 03:27:44;;;;;;;7.97;5.80;;;10.10;1.00;;;;;;5004317;28;20180;-80
2022/10/27 03:30:12;;;;;;;10.47;5.97;;;10.00;1.00;;;;;;4986659;28;20679;-80
2022/10/27 03:32:38;;;;;;;7.87;5.50;;;10.00;1.00;;;;;;4986697;28;20179;-79
2022/10/27 03:35:05;;;;;;;6.60;5.03;;;9.90;1.00;;;;;;5005003;28;20254;-79
2022/10/27 03:37:30;;;;;;;5.80;5.20;;;9.80;1.00;;;;;;5004840;28;20180;-79
2022/10/27 03:39:56;;;;;;;6.77;5.13;;;9.70;1.00;;;;;;5005307;28;20184;-82
2022/10/27 03:42:22;;;;;;;9.57;5.03;;;9.80;1.00;;;;;;4987915;28;20208;-80
2022/10/27 03:44:47;;;;;;;7.93;4.87;;;10.40;1.00;;;;;;5005054;28;20242;-80
2022/10/27 03:47:13;;;;;;;6.47;4.47;;;9.60;1.00;;;;;;5005744;28;20550;-79
2022/10/27 03:49:38;;;;;;;6.90;4.37;;;10.30;1.00;;;;;;4987327;28;20203;-80
2022/10/27 03:52:04;;;;;;;5.60;4.80;;;9.50;1.00;;;;;;4987184;28;20777;-79
2022/10/27 03:54:30;;;;;;;5.90;4.90;;;9.50;1.00;;;;;;5003701;28;20253;-79
2022/10/27 03:56:56;;;;;;;7.20;5.03;;;9.40;1.00;;;;;;5002348;28;20194;-80
2022/10/27 03:59:22;;;;;;;5.73;4.13;;;9.40;1.00;;;;;;5004426;28;20192;-80
2022/10/27 04:01:48;;;;;;;4.93;4.20;;;9.40;1.00;;;;;;4987091;28;20679;-82
2022/10/27 04:04:13;;;;;;;6.03;4.53;;;9.30;1.00;;;;;;5005153;28;20211;-81
2022/10/27 04:06:39;;;;;;;4.27;3.87;;;9.20;1.00;;;;;;4987698;28;20210;-83
2022/10/27 04:09:05;;;;;;;6.90;4.60;;;9.40;1.00;;;;;;5004581;28;20235;-79
2022/10/27 04:11:31;;;;;;;5.70;4.20;;;9.30;1.00;;;;;;4990662;28;20194;-79
2022/10/27 04:13:56;;;;;;;5.20;3.57;;;9.50;1.00;;;;;;5008792;28;20191;-81
2022/10/27 04:16:22;;;;;;;4.47;4.07;;;9.30;1.00;;;;;;5008164;28;20199;-79
2022/10/27 04:18:48;;;;;;;5.57;3.60;;;9.20;1.00;;;;;;4990816;28;20321;-81
2022/10/27 04:21:13;;;;;;;5.33;4.43;;;9.70;1.00;;;;;;4990218;28;20311;-79
2022/10/27 04:23:39;;;;;;;6.47;4.40;;;9.20;1.00;;;;;;4990713;28;20559;-81
2022/10/27 04:26:05;;;;;;;11.43;4.40;;;9.20;1.00;;;;;;5008526;28;20257;-78
2022/10/27 04:28:30;;;;;;;7.57;4.93;;;9.20;1.00;;;;;;5008588;28;20212;-83
2022/10/27 04:30:56;;;;;;;5.60;4.90;;;9.20;1.00;;;;;;4990618;28;20214;-79
2022/10/27 04:33:22;;;;;;;5.10;4.57;;;9.30;1.00;;;;;;5008031;28;20180;-79
2022/10/27 04:35:47;;;;;;;7.53;4.17;;;9.30;1.00;;;;;;5008140;28;20196;-79
2022/10/27 04:38:13;;;;;;;7.10;4.60;;;9.40;1.00;;;;;;5004821;28;20191;-84
2022/10/27 04:40:39;;;;;;;6.10;4.90;;;9.30;1.00;;;;;;5004700;28;20237;-80
2022/10/27 04:43:05;;;;;;;6.33;4.70;;;9.20;1.00;;;;;;4989787;28;20176;-80
2022/10/27 04:45:32;;;;;;;6.70;4.90;;;9.20;1.00;;;;;;5007674;28;20203;-82
2022/10/27 04:47:57;;;;;;;6.87;4.63;;;9.20;1.00;;;;;;5007374;28;20647;-80
2022/10/27 04:50:23;;;;;;;7.37;5.33;;;9.30;1.00;;;;;;4990545;28;20195;-82
2022/10/27 04:53:03;;;;;;;5.57;4.67;;;9.50;1.00;;;;;;5007827;28;20670;-79
2022/10/27 04:55:31;;;;;;;7.07;4.67;;;9.40;1.00;;;;;;4989478;28;20227;-79
2022/10/27 04:57:57;;;;;;;7.40;5.70;;;9.30;1.00;;;;;;4989836;28;20194;-79
2022/10/27 05:00:23;;;;;;;5.97;4.97;;;9.20;1.00;;;;;;4989640;28;20187;-79
2022/10/27 05:02:56;;;;;;;6.17;4.70;;;9.50;1.00;;;;;;5007061;28;20195;-79
2022/10/27 05:05:23;;;;;;;6.03;4.30;;;10.10;1.00;;;;;;5003506;28;20211;-80
2022/10/27 05:08:00;;;;;;;6.03;4.03;;;9.20;1.00;;;;;;4990488;28;20210;-78
2022/10/27 05:10:26;;;;;;;6.20;4.73;;;9.20;1.00;;;;;;5007318;28;20247;-79
2022/10/27 05:12:52;;;;;;;5.70;4.03;;;9.30;1.00;;;;;;5007655;28;20184;-81
2022/10/27 05:15:18;;;;;;;5.13;4.57;;;9.20;1.00;;;;;;5006809;28;20211;-80
2022/10/27 05:17:44;;;;;;;5.77;4.57;;;9.10;1.00;;;;;;5005779;28;20180;-82
2022/10/27 05:20:10;;;;;;;5.33;4.80;;;9.20;1.00;;;;;;5005291;28;20253;-80
2022/10/27 05:22:37;;;;;;;6.47;4.77;;;9.10;1.00;;;;;;5006883;28;20187;-79
2022/10/27 05:25:03;;;;;;;5.93;4.77;;;9.10;1.00;;;;;;4989006;28;20590;-82
2022/10/27 05:27:31;;;;;;;7.80;4.83;;;9.10;1.00;;;;;;5006835;28;20651;-81
2022/10/27 05:29:56;;;;;;;5.40;4.17;;;9.80;1.00;;;;;;5006697;28;20722;-81
2022/10/27 05:32:22;;;;;;;10.47;5.10;;;9.10;1.00;;;;;;5007106;28;20183;-79
2022/10/27 05:34:47;;;;;;;5.47;4.90;;;9.10;1.00;;;;;;5007272;28;20870;-80
2022/10/27 05:37:14;;;;;;;8.30;4.60;;;9.20;1.00;;;;;;5007337;28;20246;-81
2022/10/27 05:39:39;;;;;;;7.10;4.53;;;9.20;1.00;;;;;;5007209;28;20656;-79
2022/10/27 05:42:05;;;;;;;5.07;4.40;;;9.10;1.00;;;;;;5006715;28;20190;-80
2022/10/27 05:44:30;;;;;;;6.37;4.23;;;9.00;1.00;;;;;;4988886;28;20183;-79
2022/10/27 05:46:56;;;;;;;6.50;4.30;;;9.00;1.00;;;;;;5006443;28;20619;-79
2022/10/27 05:49:21;;;;;;;4.47;3.90;;;9.60;1.00;;;;;;4988737;28;20207;-82
2022/10/27 05:51:51;;;;;;;6.93;4.60;;;9.00;1.00;;;;;;5006408;28;20667;-82
2022/10/27 05:54:17;;;;;;;4.30;3.90;;;8.90;1.00;;;;;;5006033;28;20187;-79
2022/10/27 05:56:43;;;;;;;4.67;3.93;;;8.90;1.00;;;;;;5005657;28;20273;-78
2022/10/27 05:59:11;;;;;;;5.10;4.50;;;9.10;1.00;;;;;;5006543;28;20259;-78
2022/10/27 06:01:37;;;;;;;4.80;3.70;;;8.90;1.00;;;;;;5005825;28;20191;-79
2022/10/27 06:04:03;;;;;;;5.30;3.93;;;8.90;1.00;;;;;;4989460;28;20686;-82
2022/10/27 06:06:28;;;;;;;9.20;4.43;;;8.90;1.00;;;;;;5006569;28;20236;-83
2022/10/27 06:08:54;;;;;;;5.57;4.33;;;8.90;1.00;;;;;;4989481;28;20253;-81
2022/10/27 06:11:20;;;;;;;5.57;3.77;;;8.90;99.90;;;;;;5006012;28;20224;-82
2022/10/27 06:13:50;;;;;;;4.70;4.30;;;9.00;99.90;;;;;;5007290;28;20218;-80
2022/10/27 06:16:18;;;;;;;6.30;4.10;;;8.90;99.90;;;;;;4988709;28;20663;-78
2022/10/27 06:18:44;;;;;;;5.00;4.27;;;9.30;99.90;;;;;;4986303;28;20195;-79
2022/10/27 06:21:09;;;;;;;7.23;4.57;;;9.00;99.90;;;;;;4997604;28;20183;-79
2022/10/27 06:23:36;;;;;;;5.50;4.83;;;9.00;99.90;;;;;;5002530;28;20253;-80
2022/10/27 06:26:02;;;;;;;7.43;4.30;;;9.10;99.90;;;;;;5003117;28;20720;-82
2022/10/27 06:28:28;;;;;;;6.57;4.80;;;9.10;99.90;;;;;;5006007;28;20207;-79
2022/10/27 06:30:54;;;;;;;9.23;6.37;;;9.10;99.90;;;;;;4983677;28;20198;-80
2022/10/27 06:33:19;;;;;;;9.47;7.00;;;9.40;1.00;;;;;;5006120;28;20175;-81
2022/10/27 06:35:45;;;;;;;10.97;8.00;;;9.50;1.00;;;;;;5002423;28;20249;-81
2022/10/27 06:38:15;;;;;;;8.37;7.43;;;9.80;1.00;;;;;;5005469;28;20253;-81
2022/10/27 06:40:45;;;;;;;9.40;8.50;;;9.70;1.00;;;;;;4989008;28;20186;-84
2022/10/27 06:43:11;;;;;;;9.00;7.80;;;9.80;1.00;;;;;;4984600;28;20183;-84
2022/10/27 06:45:37;;;;;;;7.87;6.87;;;10.10;1.00;;;;;;5005263;28;20277;-86
2022/10/27 06:48:05;;;;;;;9.83;7.63;;;10.00;1.00;;;;;;5006125;28;20222;-84
2022/10/27 06:50:31;;;;;;;12.63;9.33;;;9.80;1.00;;;;;;4989448;28;20607;-86
2022/10/27 06:52:57;;;;;;;10.63;8.60;;;9.90;1.00;;;;;;4985698;28;20199;-86
2022/10/27 06:55:23;;;;;;;10.50;8.53;;;10.00;1.00;;;;;;5004605;28;20207;-83
2022/10/27 06:57:49;;;;;;;10.23;8.67;;;10.50;1.00;;;;;;4986945;28;20245;-85
2022/10/27 07:00:15;;;;;;;10.57;8.23;;;10.20;1.00;;;;;;5005315;28;20194;-87
2022/10/27 07:02:41;;;;;;;11.43;7.20;;;10.20;1.00;;;;;;4987741;28;20184;-87
2022/10/27 07:05:07;;;;;;;8.83;6.63;;;10.60;1.00;;;;;;4987150;28;20245;-87
2022/10/27 07:07:34;;;;;;;7.77;6.30;;;10.60;1.00;;;;;;4986891;28;20198;-86
2022/10/27 07:09:59;;;;;;;8.10;6.47;;;11.20;1.00;;;;;;4987942;28;20250;-86
2022/10/27 07:12:25;;;;;;;11.40;6.38;;;11.60;1.00;;;;;;4987798;28;20216;-87
2022/10/27 07:14:51;;;;;;;8.05;6.22;;;10.90;1.00;;;;;;4990209;28;20298;-86
2022/10/27 07:17:16;;;;;;;6.95;6.22;;;11.00;1.00;;;;;;4989035;28;20195;-87
2022/10/27 07:19:42;;;;;;;6.53;5.90;;;11.20;1.00;;;;;;4989737;28;20726;-87
2022/10/27 07:22:07;;;;;;;13.52;6.50;;;11.10;1.00;;;;;;4989296;28;20188;-86
2022/10/27 07:24:33;;;;;;;8.57;6.15;;;11.10;1.00;;;;;;5007483;28;20218;-87
2022/10/27 07:26:58;;;;;;;7.63;6.37;;;11.10;1.00;;;;;;4989490;28;20183;-86
2022/10/27 07:29:24;;;;;;;7.57;6.68;;;11.20;1.00;;;;;;4989662;28;20215;-87
2022/10/27 07:31:50;;;;;;;8.45;6.88;;;11.30;1.00;;;;;;5003200;28;20194;-87
2022/10/27 07:34:15;;;;;;;6.07;5.57;;;11.20;1.00;;;;;;4985284;28;20191;-87
2022/10/27 07:36:41;;;;;;;8.63;6.10;;;11.60;1.00;;;;;;5002846;28;20203;-87
2022/10/27 07:39:07;;;;;;;10.68;7.00;;;11.30;1.00;;;;;;5003904;28;20194;-87
2022/10/27 07:41:32;;;;;;;7.38;6.65;;;11.10;1.00;;;;;;4983381;28;20554;-87
2022/10/27 07:43:58;;;;;;;9.95;7.47;;;11.10;1.00;;;;;;4988693;28;20202;-81
2022/10/27 07:46:24;;;;;;;8.02;7.22;;;11.10;1.00;;;;;;5006550;28;20239;-82
2022/10/27 07:48:49;;;;;;;8.70;7.43;;;11.20;1.00;;;;;;4990668;28;20199;-84
2022/10/27 07:51:16;;;;;;;9.70;7.65;;;11.20;1.00;;;;;;5010899;28;20188;-86
2022/10/27 07:53:41;;;;;;;11.77;9.68;;;11.40;1.00;;;;;;4992051;28;20266;-86
2022/10/27 07:56:07;;;;;;;13.10;9.18;;;11.40;99.90;;;;;;4991645;28;20293;-86
2022/10/27 07:58:32;;;;;;;10.32;8.93;;;11.50;99.90;;;;;;4991685;28;20199;-86
2022/10/27 08:00:59;;;;;;;12.23;9.00;;;11.60;99.90;;;;;;4993845;28;20562;-86
2022/10/27 08:03:28;;;;;;;14.35;9.85;;;11.60;1.00;;;;;;4991028;28;20188;-87
2022/10/27 08:05:54;;;;;;;11.05;9.90;;;11.80;1.00;;;;;;4987851;28;20203;-84
2022/10/27 08:08:20;;;;;;;12.55;11.30;;;12.00;1.00;;;;;;4989746;28;20191;-83
2022/10/27 08:10:48;;;;;;;13.77;10.45;;;11.90;54.30;;;;;;5007045;28;20632;-84
2022/10/27 08:13:15;;;;;;;11.63;10.43;;;12.40;97.10;;;;;;4985931;28;20180;-86
2022/10/27 08:15:41;;;;;;;14.60;10.05;;;12.20;99.90;;;;;;4989059;28;20199;-83
2022/10/27 08:18:08;;;;;;;11.48;9.75;;;12.40;99.90;;;;;;5007697;28;20557;-84
2022/10/27 08:20:37;;;;;;;10.98;9.57;;;12.60;99.90;;;;;;4991943;28;20179;-85
2022/10/27 08:23:05;;;;;;;10.65;8.77;;;12.70;99.90;;;;;;4992176;28;20791;-85
2022/10/27 08:25:32;;;;;;;9.32;8.18;;;12.90;1.00;;;;;;4990160;28;20743;-85
2022/10/27 08:27:57;;;;;;;9.18;7.95;;;13.00;98.10;;;;;;4991782;28;20194;-82
2022/10/27 08:30:26;;;;;;;8.40;7.28;;;13.40;99.90;;;;;;5008357;28;21120;-84
2022/10/27 08:32:56;;;;;;;9.10;6.93;;;13.50;1.00;;;;;;4998118;28;20274;-86
2022/10/27 08:35:22;;;;;;;6.88;6.18;;;13.60;99.90;;;;;;4989127;28;20199;-82
2022/10/27 08:37:48;;;;;;;7.43;5.53;;;13.70;1.00;;;;;;4989799;28;20897;-84
2022/10/27 08:40:13;;;;;;;7.03;5.35;;;13.90;1.00;;;;;;4990536;28;20191;-80
2022/10/27 08:43:06;;;;;;;8.35;6.43;;;14.00;1.00;;;;;;4990102;28;20207;-85
2022/10/27 08:45:41;;;;;;;7.43;5.50;;;14.10;99.90;;;;;;4987738;28;20223;-84
2022/10/27 08:48:10;;;;;;;7.32;5.38;;;14.20;99.90;;;;;;4987635;28;20810;-85
2022/10/27 08:50:42;;;;;;;12.15;5.70;;;14.40;99.90;;;;;;4984875;28;20257;-84
2022/10/27 08:53:14;;;;;;;7.70;5.05;;;14.50;40.00;;;;;;4986094;28;20195;-84
2022/10/27 08:55:52;;;;;;;9.57;5.07;;;14.70;80.00;;;;;;5003887;28;20200;-83
2022/10/27 08:58:37;;;;;;;6.65;4.68;;;14.80;1.00;;;;;;4986756;28;20179;-84
2022/10/27 09:01:08;;;;;;;5.57;4.60;;;15.00;1.00;;;;;;5004761;28;20279;-84
2022/10/27 09:03:38;;;;;;;5.13;4.60;;;15.00;1.00;;;;;;5004654;28;20179;-82
2022/10/27 09:06:13;;;;;;;5.20;4.32;;;15.00;1.00;;;;;;4988412;28;20213;-82
2022/10/27 09:09:02;;;;;;;6.13;4.90;;;15.10;1.00;;;;;;4988690;28;20210;-82
2022/10/27 09:12:09;;;;;;;7.03;4.47;;;15.10;1.00;;;;;;4989170;28;20184;-82
2022/10/27 09:14:48;;;;;;;5.45;4.35;;;15.20;1.00;;;;;;5004469;28;20206;-85
2022/10/27 09:17:20;;;;;;;5.00;4.15;;;15.30;1.00;;;;;;4996516;28;20196;-84
2022/10/27 09:20:13;;;;;;;5.82;4.00;;;15.30;1.00;;;;;;4995713;28;20184;-83
2022/10/27 09:22:49;;;;;;;6.80;3.53;;;15.40;99.90;;;;;;4987393;28;20282;-85
2022/10/27 09:25:20;;;;;;;4.38;3.40;;;15.50;99.90;;;;;;4990604;28;20249;-84
2022/10/27 09:27:52;;;;;;;5.15;3.20;;;15.60;99.90;;;;;;4991097;28;20183;-84
2022/10/27 09:30:18;;;;;;;7.55;3.80;;;15.80;99.90;;;;;;4990789;28;20718;-84
2022/10/27 09:32:55;;;;;;;5.70;3.33;;;15.90;99.90;;;;;;5008114;28;20188;-85
2022/10/27 09:35:27;;;;;;;5.45;2.83;;;16.10;99.90;;;;;;4991043;28;20710;-85
2022/10/27 09:37:55;;;;;;;5.38;2.25;;;16.20;99.90;;;;;;4990072;28;20782;-84
2022/10/27 09:40:22;;;;;;;3.92;2.20;;;16.30;99.90;;;;;;4992423;28;20184;-86
2022/10/27 09:42:52;;;;;;;4.07;2.33;;;16.40;99.90;;;;;;4991926;28;20707;-83
2022/10/27 09:45:23;;;;;;;5.32;2.13;;;16.60;99.90;;;;;;4999281;28;20227;-83
2022/10/27 09:48:03;;;;;;;4.85;2.92;;;16.60;99.90;;;;;;4999351;28;20183;-83
2022/10/27 09:50:44;;;;;;;6.00;2.78;;;16.70;99.90;;;;;;5009649;28;20256;-83
2022/10/27 09:53:36;;;;;;;4.32;2.50;;;16.90;99.90;;;;;;4988059;28;20203;-85
2022/10/27 09:56:03;;;;;;;4.18;2.35;;;16.90;99.90;;;;;;4989815;28;20698;-83
2022/10/27 09:58:29;;;;;;;4.18;2.42;;;17.00;99.90;;;;;;4989100;28;20183;-82
2022/10/27 10:00:57;;;;;;;4.15;2.30;;;16.90;99.00;;;;;;4985364;28;20183;-83
2022/10/27 10:03:22;;;;;;;2.95;2.25;;;16.90;98.20;;;;;;4991970;28;20186;-83
2022/10/27 10:06:02;;;;;;;4.10;2.22;;;16.90;99.90;;;;;;4996910;28;20199;-83
2022/10/27 10:08:32;;;;;;;4.15;2.22;;;16.90;99.90;;;;;;4985674;28;20179;-82
2022/10/27 10:10:59;;;;;;;3.30;2.38;;;16.90;99.90;;;;;;4986434;28;20238;-85
2022/10/27 10:13:29;;;;;;;3.35;2.50;;;17.00;99.90;;;;;;4982024;28;20171;-83
2022/10/27 10:16:09;;;;;;;3.95;2.60;;;17.00;99.90;;;;;;4985630;28;20204;-83
2022/10/27 10:18:35;;;;;;;4.93;2.33;;;17.10;99.90;;;;;;5007766;28;20289;-83
2022/10/27 10:21:07;;;;;;;4.82;2.55;;;17.30;99.90;;;;;;5006371;28;20187;-84
2022/10/27 10:23:55;;;;;;;4.25;2.33;;;17.40;94.60;;;;;;5006745;28;20794;-82
2022/10/27 10:26:25;;;;;;;3.88;1.92;;;17.50;91.70;;;;;;4983840;28;20215;-83
2022/10/27 10:28:54;;;;;;;5.78;2.60;;;17.60;89.40;;;;;;4985792;28;20246;-83
2022/10/27 10:31:27;;;;;;;3.25;2.33;;;17.70;65.50;;;;;;4986010;28;20243;-83
2022/10/27 10:34:07;;;;;;;4.28;2.20;;;17.80;77.60;;;;;;4989325;28;20341;-85
2022/10/27 10:36:40;;;;;;;4.10;2.20;;;18.00;51.60;;;;;;4985517;28;20195;-83
2022/10/27 10:39:30;;;;;;;3.08;2.20;;;18.00;45.60;;;;;;5006303;28;20272;-84
2022/10/27 10:42:15;;;;;;;2.83;2.00;;;18.20;39.10;;;;;;4994758;28;20198;-82
2022/10/27 10:44:41;;;;;;;5.32;2.40;;;18.40;26.70;;;;;;4982279;28;20579;-85
2022/10/27 10:47:23;;;;;;;4.18;2.33;;;18.50;23.90;;;;;;4990322;28;20188;-81
2022/10/27 10:49:53;;;;;;;3.72;1.60;;;18.60;20.90;;;;;;4987999;28;20745;-83
2022/10/27 10:52:23;;;;;;;3.95;1.58;;;18.70;8.90;;;;;;4992462;28;20250;-85
2022/10/27 10:54:49;;;;;;;1.90;1.50;;;18.80;1.00;;;;;;4989466;28;20199;-82
2022/10/27 10:57:24;;;;;;;4.32;1.65;;;18.90;1.00;;;;;;4986939;28;21404;-82
2022/10/27 10:59:53;;;;;;;3.60;1.73;;;19.00;1.00;;;;;;4988988;28;20184;-84
2022/10/27 11:02:30;;;;;;;2.28;1.42;;;19.00;1.00;;;;;;4999125;28;20303;-83
2022/10/27 11:05:24;;;;;;;4.82;1.67;;;19.00;1.00;;;;;;4988708;28;20231;-83
2022/10/27 11:07:50;;;;;;;2.28;1.60;;;19.10;1.00;;;;;;4986415;28;20199;-84
2022/10/27 11:10:30;;;;;;;4.90;1.65;;;19.20;1.00;;;;;;5007472;28;20303;-82
2022/10/27 11:13:15;;;;;;;2.60;1.65;;;19.30;1.00;;;;;;4989873;28;20172;-82
2022/10/27 11:15:41;;;;;;;4.10;1.80;;;19.30;1.00;;;;;;4998776;28;20205;-83
2022/10/27 11:18:29;;;;;;;3.90;1.83;;;19.40;1.00;;;;;;4992661;28;20262;-84
2022/10/27 11:21:19;;;;;;;4.78;2.03;;;19.50;1.00;;;;;;4990888;28;20362;-84
2022/10/27 11:23:55;;;;;;;2.55;1.70;;;19.60;1.00;;;;;;5011418;28;20176;-83
2022/10/27 11:26:29;;;;;;;2.92;1.63;;;19.60;1.00;;;;;;4992181;28;20213;-84
2022/10/27 11:29:17;;;;;;;1.98;1.30;;;19.70;1.00;;;;;;5010937;28;20200;-83
2022/10/27 11:32:08;;;;;;;2.65;1.70;;;19.70;1.00;;;;;;5010269;28;20175;-83
2022/10/27 11:34:37;;;;;;;4.60;1.80;;;19.70;1.00;;;;;;4990802;28;20191;-81
2022/10/27 11:37:37;;;;;;;4.60;2.08;;;19.80;1.00;;;;;;5009003;28;20175;-79
2022/10/27 11:40:22;;;;;;;5.18;1.80;;;19.80;1.00;;;;;;4976221;28;20183;-79
2022/10/27 11:43:13;;;;;;;3.80;2.05;;;19.90;1.00;;;;;;4991253;28;20266;-80
2022/10/27 11:46:01;;;;;;;4.50;2.20;;;19.90;1.00;;;;;;4996462;28;20694;-79
2022/10/27 11:48:50;;;;;;;3.72;1.92;;;20.00;1.00;;;;;;4990525;28;20199;-78
2022/10/27 11:51:18;;;;;;;3.90;1.80;;;20.00;1.00;;;;;;5009844;28;20216;-78
2022/10/27 11:53:44;;;;;;;5.97;1.98;;;20.00;1.00;;;;;;5007935;28;20188;-78
2022/10/27 11:56:46;;;;;;;2.78;1.90;;;20.00;1.00;;;;;;5006393;28;20637;-78
2022/10/27 11:59:43;;;;;;;5.47;1.85;;;20.00;1.00;;;;;;5006899;28;20314;-78
2022/10/27 12:02:14;;;;;;;4.05;2.03;;;20.20;1.00;;;;;;5009962;28;20194;-78
2022/10/27 12:04:46;;;;;;;2.85;1.90;;;20.30;1.00;;;;;;5002165;28;20219;-77
2022/10/27 12:07:35;;;;;;;2.88;2.03;;;20.20;1.00;;;;;;5004126;28;20258;-78
2022/10/27 12:10:30;;;;;;;5.72;2.17;;;20.30;1.00;;;;;;5008813;28;20239;-77
2022/10/27 12:13:04;;;;;;;4.28;2.00;;;20.30;1.00;;;;;;5008043;28;20190;-78
2022/10/27 12:15:48;;;;;;;2.53;1.60;;;20.30;1.00;;;;;;5010227;28;20289;-78
2022/10/27 12:18:42;;;;;;;4.50;2.10;;;20.30;1.00;;;;;;5009289;28;20191;-78
2022/10/27 12:21:33;;;;;;;3.80;1.60;;;20.30;1.00;;;;;;5009437;28;20195;-79
2022/10/27 12:24:31;;;;;;;2.40;1.45;;;20.30;1.00;;;;;;5010012;28;20178;-78
2022/10/27 12:27:01;;;;;;;4.25;1.92;;;20.30;1.00;;;;;;4975443;28;20180;-77
2022/10/27 12:29:33;;;;;;;5.15;2.13;;;20.30;1.00;;;;;;5006011;28;20685;-77
2022/10/27 12:32:27;;;;;;;3.33;1.95;;;20.30;1.00;;;;;;5006149;28;21256;-78
2022/10/27 12:35:16;;;;;;;2.65;1.90;;;20.10;1.00;;;;;;5001148;28;20214;-77
2022/10/27 12:37:51;;;;;;;3.85;2.22;;;20.10;1.00;;;;;;5005732;28;20183;-79
2022/10/27 12:40:44;;;;;;;4.20;2.42;;;20.00;1.00;;;;;;4992221;28;20419;-78
2022/10/27 12:43:36;;;;;;;4.50;2.58;;;20.00;1.00;;;;;;5006948;28;20184;-78
2022/10/27 12:46:27;;;;;;;3.08;2.22;;;20.00;1.00;;;;;;4988083;28;20235;-79
2022/10/27 12:49:10;;;;;;;2.88;2.20;;;20.10;1.00;;;;;;5005776;28;20200;-78
2022/10/27 12:51:43;;;;;;;3.75;2.10;;;20.20;1.00;;;;;;4988252;28;20238;-78
2022/10/27 12:54:29;;;;;;;2.60;1.90;;;20.30;1.00;;;;;;5004384;28;20187;-77
2022/10/27 12:57:02;;;;;;;3.58;2.00;;;20.40;1.00;;;;;;4987073;28;20184;-78
2022/10/27 13:00:07;;;;;;;3.63;1.83;;;20.30;1.00;;;;;;4987952;28;20795;-78
2022/10/27 13:02:46;;;;;;;2.88;1.80;;;20.40;1.00;;;;;;4986840;28;20676;-78
2022/10/27 13:05:34;;;;;;;3.92;1.70;;;20.50;1.00;;;;;;5006311;28;20203;-77
2022/10/27 13:08:10;;;;;;;2.30;1.73;;;20.40;1.00;;;;;;4988548;28;20180;-78
2022/10/27 13:10:42;;;;;;;2.38;1.60;;;20.50;1.00;;;;;;5005459;28;20207;-77
2022/10/27 13:13:38;;;;;;;3.78;1.85;;;20.50;1.00;;;;;;5004530;28;20195;-79
2022/10/27 13:16:32;;;;;;;4.32;1.80;;;20.40;1.00;;;;;;5005458;28;20218;-77
2022/10/27 13:19:00;;;;;;;4.22;1.60;;;20.40;1.00;;;;;;5005013;28;20190;-78